createdAt,value
2023-12-14T00:00:04.552Z,4.17
2023-12-14T00:05:00.937Z,4.16
2023-12-14T00:09:57.398Z,4.21
2023-12-14T00:14:53.784Z,4.29
2023-12-14T00:19:50.299Z,4.34
2023-12-14T00:24:46.832Z,4.20
2023-12-14T00:29:43.180Z,4.17
2023-12-14T00:34:39.754Z,4.10
2023-12-14T00:39:36.260Z,4.11
2023-12-14T00:44:32.659Z,4.17
2023-12-14T00:49:29.580Z,4.06
2023-12-14T00:54:26.021Z,3.98
2023-12-14T00:59:22.513Z,4.04
2023-12-14T01:04:18.905Z,3.90
2023-12-14T01:09:15.282Z,3.91
2023-12-14T01:14:12.441Z,3.99
2023-12-14T01:19:09.084Z,3.93
2023-12-14T01:24:05.933Z,3.88
2023-12-14T01:29:02.476Z,3.80
2023-12-14T01:33:58.903Z,3.78
2023-12-14T01:38:55.324Z,3.84
2023-12-14T01:43:51.774Z,3.76
2023-12-14T01:48:48.374Z,3.63
2023-12-14T01:53:44.785Z,3.56
2023-12-14T01:58:41.189Z,3.62
2023-12-14T02:03:45.155Z,3.57
2023-12-14T02:08:41.602Z,3.46
2023-12-14T02:13:37.994Z,3.45
2023-12-14T02:18:34.478Z,3.44
2023-12-14T02:23:31.480Z,3.43
2023-12-14T02:28:27.834Z,3.31
2023-12-14T02:33:24.182Z,3.38
2023-12-14T02:38:20.588Z,3.37
2023-12-14T02:43:17.324Z,3.31
2023-12-14T02:48:13.851Z,3.40
2023-12-14T02:53:10.362Z,3.30
2023-12-14T02:58:06.945Z,3.27
2023-12-14T03:03:03.383Z,3.34
2023-12-14T03:07:59.815Z,3.24
2023-12-14T03:12:56.656Z,3.19
2023-12-14T03:17:53.061Z,3.23
2023-12-14T03:22:49.488Z,3.25
2023-12-14T03:27:45.974Z,3.26
2023-12-14T03:32:43.405Z,3.16
2023-12-14T03:37:39.873Z,3.21
2023-12-14T03:42:36.872Z,3.16
2023-12-14T03:47:33.364Z,3.21
2023-12-14T03:52:32.485Z,3.14
2023-12-14T03:57:29.657Z,3.07
2023-12-14T04:02:26.081Z,3.15
2023-12-14T04:07:22.718Z,3.02
2023-12-14T04:12:19.134Z,2.98
2023-12-14T04:17:15.950Z,3.03
2023-12-14T04:22:12.437Z,3.06
2023-12-14T04:27:08.794Z,2.97
2023-12-14T04:32:06.115Z,2.90
2023-12-14T04:37:02.798Z,2.83
2023-12-14T04:41:59.183Z,2.83
2023-12-14T04:46:55.643Z,2.84
2023-12-14T04:51:52.141Z,2.86
2023-12-14T04:56:48.683Z,2.93
2023-12-14T05:01:45.611Z,2.90
2023-12-14T05:06:42.318Z,2.84
2023-12-14T05:11:40.762Z,2.86
2023-12-14T05:16:37.286Z,2.89
2023-12-14T05:21:33.658Z,2.91
2023-12-14T05:26:30.033Z,2.97
2023-12-14T05:31:26.398Z,2.93
2023-12-14T05:36:22.805Z,2.93
2023-12-14T05:41:19.263Z,2.92
2023-12-14T05:46:23.121Z,2.89
2023-12-14T05:51:32.840Z,2.79
2023-12-14T05:56:29.320Z,2.82
2023-12-14T06:01:25.961Z,2.87
2023-12-14T06:06:23.117Z,2.89
2023-12-14T06:11:20.922Z,2.89
2023-12-14T06:16:17.391Z,2.88
2023-12-14T06:21:14.713Z,2.78
2023-12-14T06:26:11.169Z,2.82
2023-12-14T06:31:13.433Z,2.62
2023-12-14T06:36:10.044Z,2.59
2023-12-14T06:41:06.781Z,2.60
2023-12-14T06:46:03.228Z,2.68
2023-12-14T06:50:59.625Z,2.71
2023-12-14T06:55:55.980Z,2.74
2023-12-14T07:00:52.399Z,2.59
2023-12-14T07:05:48.788Z,2.54
2023-12-14T07:10:45.743Z,2.59
2023-12-14T07:15:42.219Z,2.55
2023-12-14T07:20:39.307Z,2.58
2023-12-14T07:25:35.794Z,2.52
2023-12-14T07:30:32.187Z,2.49
2023-12-14T07:35:28.525Z,2.48
2023-12-14T07:40:24.921Z,2.48
2023-12-14T07:45:21.366Z,2.50
2023-12-14T07:50:18.170Z,2.49
2023-12-14T07:55:15.081Z,2.47
2023-12-14T08:00:12.010Z,2.54
2023-12-14T08:05:09.348Z,2.53
2023-12-14T08:10:06.011Z,2.59
2023-12-14T08:15:02.537Z,2.42
2023-12-14T08:19:58.911Z,2.32
2023-12-14T08:24:55.335Z,2.28
2023-12-14T08:29:51.743Z,2.27
2023-12-14T08:34:48.627Z,2.24
2023-12-14T08:39:44.990Z,2.27
2023-12-14T08:44:41.691Z,2.29
2023-12-14T08:49:38.108Z,2.34
2023-12-14T08:54:34.489Z,2.44
2023-12-14T08:59:31.340Z,2.42
2023-12-14T09:04:27.748Z,2.49
2023-12-14T09:09:24.103Z,2.47
2023-12-14T09:14:21.608Z,2.45
2023-12-14T09:19:20.106Z,2.48
2023-12-14T09:24:16.850Z,2.48
2023-12-14T09:29:13.649Z,2.61
2023-12-14T09:34:13.201Z,2.62
2023-12-14T09:39:12.846Z,2.46
2023-12-14T09:44:09.824Z,2.57
2023-12-14T09:49:08.831Z,2.53
2023-12-14T09:54:06.020Z,2.54
2023-12-14T09:59:03.667Z,2.53
2023-12-14T10:04:26.483Z,2.61
2023-12-14T10:09:25.771Z,2.55
2023-12-14T10:14:25.919Z,2.51
2023-12-14T10:19:22.590Z,2.50
2023-12-14T10:24:20.794Z,2.61
2023-12-14T10:29:17.448Z,2.73
2023-12-14T10:34:14.593Z,2.81
2023-12-14T10:39:15.270Z,2.70
2023-12-14T10:44:25.416Z,2.78
2023-12-14T10:49:30.048Z,2.82
2023-12-14T10:54:27.852Z,2.84
2023-12-14T10:59:27.493Z,3.02
2023-12-14T11:04:24.369Z,2.99
2023-12-14T11:09:23.717Z,3.06
2023-12-14T11:14:21.918Z,3.18
2023-12-14T11:19:26.407Z,3.37
2023-12-14T11:24:23.580Z,3.20
2023-12-14T11:29:20.628Z,3.15
2023-12-14T11:34:18.265Z,3.27
2023-12-14T11:39:15.789Z,3.25
2023-12-14T11:44:23.664Z,3.37
2023-12-14T11:49:20.267Z,3.22
2023-12-14T11:54:16.945Z,3.16
2023-12-14T11:59:13.633Z,3.18
2023-12-14T12:04:11.633Z,3.26
2023-12-14T12:09:11.681Z,3.29
2023-12-14T12:14:08.249Z,3.33
2023-12-14T12:19:04.973Z,3.30
2023-12-14T12:24:01.931Z,3.41
2023-12-14T12:28:59.233Z,3.54
2023-12-14T12:33:55.729Z,3.55
2023-12-14T12:38:52.281Z,3.57
2023-12-14T12:43:48.709Z,3.51
2023-12-14T12:48:45.455Z,3.68
2023-12-14T12:53:41.881Z,3.74
2023-12-14T12:58:38.361Z,3.73
2023-12-14T13:03:35.043Z,3.54
2023-12-14T13:08:31.991Z,3.67
2023-12-14T13:13:28.516Z,3.67
2023-12-14T13:18:24.988Z,3.83
2023-12-14T13:23:21.553Z,3.91
2023-12-14T13:28:18.322Z,3.79
2023-12-14T13:33:14.889Z,3.62
2023-12-14T13:38:11.349Z,3.64
2023-12-14T13:43:12.440Z,3.66
2023-12-14T13:48:09.286Z,3.68
2023-12-14T13:53:05.937Z,3.68
2023-12-14T13:58:03.269Z,3.66
2023-12-14T14:02:59.787Z,3.66
2023-12-14T14:07:56.824Z,3.64
2023-12-14T14:12:53.963Z,3.65
2023-12-14T14:17:53.228Z,3.60
2023-12-14T14:22:50.057Z,3.57
2023-12-14T14:27:48.051Z,3.51
2023-12-14T14:32:44.663Z,3.53
2023-12-14T14:37:46.959Z,3.54
2023-12-14T14:42:45.057Z,3.60
2023-12-14T14:47:42.733Z,3.59
2023-12-14T14:52:39.627Z,3.58
2023-12-14T14:57:36.392Z,3.54
2023-12-14T15:02:32.965Z,3.55
2023-12-14T15:07:31.406Z,3.52
2023-12-14T15:12:27.809Z,3.52
2023-12-14T15:17:24.634Z,3.55
2023-12-14T15:22:21.196Z,3.54
2023-12-14T15:27:17.644Z,3.54
2023-12-14T15:32:15.824Z,3.50
2023-12-14T15:37:12.556Z,3.50
2023-12-14T15:42:08.920Z,3.49
2023-12-14T15:47:05.834Z,3.48
2023-12-14T15:52:02.295Z,3.45
2023-12-14T15:56:59.764Z,3.46
2023-12-14T16:01:56.208Z,3.42
2023-12-14T16:06:52.751Z,3.40
2023-12-14T16:11:49.136Z,3.39
2023-12-14T16:16:45.621Z,3.40
2023-12-14T16:21:42.000Z,3.39
2023-12-14T16:26:43.001Z,3.40
2023-12-14T16:31:43.397Z,3.44
2023-12-14T16:36:39.885Z,3.52
2023-12-14T16:41:36.252Z,3.49
2023-12-14T16:46:32.838Z,3.42
2023-12-14T16:51:29.406Z,3.35
2023-12-14T16:56:30.997Z,3.34
2023-12-14T17:01:27.672Z,3.35
2023-12-14T17:06:24.199Z,3.33
2023-12-14T17:11:22.157Z,3.33
2023-12-14T17:16:20.398Z,3.35
2023-12-14T17:21:21.648Z,3.37
2023-12-14T17:26:18.514Z,3.37
2023-12-14T17:31:16.705Z,3.38
2023-12-14T17:36:13.344Z,3.41
2023-12-14T17:41:11.579Z,3.37
2023-12-14T17:46:08.349Z,3.33
2023-12-14T17:51:04.938Z,3.30
2023-12-14T17:56:01.400Z,3.31
2023-12-14T18:00:58.158Z,3.30
2023-12-14T18:05:54.609Z,3.29
2023-12-14T18:10:51.097Z,3.28
2023-12-14T18:15:47.490Z,3.28
2023-12-14T18:20:43.899Z,3.26
2023-12-14T18:25:40.761Z,3.28
2023-12-14T18:30:37.290Z,3.25
2023-12-14T18:35:33.867Z,3.24
2023-12-14T18:40:30.763Z,3.21
2023-12-14T18:45:27.202Z,3.20
2023-12-14T18:50:23.671Z,3.18
2023-12-14T18:55:20.092Z,3.15
2023-12-14T19:00:16.926Z,3.16
2023-12-14T19:05:14.462Z,3.17
2023-12-14T19:10:11.207Z,3.16
2023-12-14T19:15:09.979Z,3.14
2023-12-14T19:20:10.061Z,3.12
2023-12-14T19:25:10.978Z,3.11
2023-12-14T19:30:10.294Z,3.08
2023-12-14T19:35:07.021Z,3.05
2023-12-14T19:40:04.788Z,3.03
2023-12-14T19:45:01.299Z,3.02
2023-12-14T19:50:00.757Z,2.96
2023-12-14T19:54:58.636Z,2.94
2023-12-14T19:59:55.077Z,2.92
2023-12-14T20:04:51.488Z,2.88
2023-12-14T20:09:57.494Z,2.83
2023-12-14T20:14:57.584Z,2.78
2023-12-14T20:19:54.040Z,2.77
2023-12-14T20:24:50.836Z,2.75
2023-12-14T20:29:47.210Z,2.71
2023-12-14T20:34:43.718Z,2.76
2023-12-14T20:39:40.107Z,2.70
2023-12-14T20:44:36.502Z,2.67
2023-12-14T20:49:32.894Z,2.67
2023-12-14T20:54:29.333Z,2.67
2023-12-14T20:59:25.862Z,2.64
2023-12-14T21:04:22.291Z,2.62
2023-12-14T21:09:19.954Z,2.58
2023-12-14T21:14:17.222Z,2.54
2023-12-14T21:19:13.884Z,2.52
2023-12-14T21:24:10.382Z,2.54
2023-12-14T21:29:07.497Z,2.56
2023-12-14T21:34:04.192Z,2.61
2023-12-14T21:39:00.650Z,2.62
2023-12-14T21:43:57.032Z,2.71
2023-12-14T21:48:53.919Z,2.99
2023-12-14T21:53:51.681Z,2.87
2023-12-14T21:58:48.120Z,2.79
2023-12-14T22:03:44.545Z,2.73
2023-12-14T22:08:41.046Z,2.69
2023-12-14T22:13:37.493Z,2.67
2023-12-14T22:18:33.996Z,2.67
2023-12-14T22:23:30.568Z,2.65
2023-12-14T22:28:26.988Z,2.65
2023-12-14T22:33:23.457Z,2.64
2023-12-14T22:38:20.493Z,2.66
2023-12-14T22:43:17.810Z,2.63
2023-12-14T22:48:15.539Z,2.74
2023-12-14T22:53:19.249Z,2.76
2023-12-14T22:58:20.292Z,2.73
2023-12-14T23:03:16.992Z,2.69
2023-12-14T23:08:13.490Z,2.73
2023-12-14T23:13:10.458Z,2.73
2023-12-14T23:18:07.049Z,2.80
2023-12-14T23:23:03.564Z,2.92
2023-12-14T23:28:00.013Z,3.06
2023-12-14T23:32:56.408Z,3.07
2023-12-14T23:37:52.848Z,3.01
2023-12-14T23:42:49.294Z,2.99
2023-12-14T23:47:45.824Z,2.92
2023-12-14T23:52:42.482Z,2.97
2023-12-14T23:57:39.212Z,3.08
